KLOL/LOL METAR and TAF weather

Enter ICAO airport designator
Station Type Date Time Source
KLOL METAR 2021/09/20 03:53 UTC NOAA

KLOL 200353Z AUTO 02009KT 10SM CLR 14/M02 A3018 RMK AO2 SLP198 T01441022


Station Type Date Time Source
KLOL Decoded METAR 2021/09/20 03:53 UTC NOAA

LOVELOCK DERBY FIELD, NV, United States (KLOL) 40-04N 118-34W 1189M
Sep 19, 2021 - 11:53 PM EDT / 2021.09.20 0353 UTC
Wind: from the NNE (020 degrees) at 10 MPH (9 KT):0
Visibility: 10 mile(s):0
Sky conditions: clear
Temperature: 57.9 F (14.4 C)
Dew Point: 28.0 F (-2.2 C)
Relative Humidity: 31%
Pressure (altimeter): 30.18 in. Hg (1022 hPa)
ob: KLOL 200353Z AUTO 02009KT 10SM CLR 14/M02 A3018 RMK AO2 SLP198 T01441022
cycle: 4

Station Type Date Time Source
KLOL TAF 2010/01/05 05:22 UTC NOAA

TAF KLOL 050522Z 0506/0606 00000KT 1/4SM FZFG VV001
FM052000 VRB03KT 3SM BR OVC002
AMD NOT SKED

Example: see airport list